sensor_id;sensor_type;location;lat;lon;timestamp;pressure;altitude;pressure_sealevel;temperature;humidity
32873;BME280;19224;52.462;16.898;2023-01-29T00:01:07;101307.94;;;0.77;100.00
32873;BME280;19224;52.462;16.898;2023-01-29T00:03:39;101308.79;;;0.73;100.00
32873;BME280;19224;52.462;16.898;2023-01-29T00:06:10;101309.66;;;0.72;100.00
32873;BME280;19224;52.462;16.898;2023-01-29T00:08:41;101297.28;;;0.71;100.00
32873;BME280;19224;52.462;16.898;2023-01-29T00:11:11;101280.42;;;0.66;100.00
32873;BME280;19224;52.462;16.898;2023-01-29T00:13:43;101283.93;;;0.62;100.00
32873;BME280;19224;52.462;16.898;2023-01-29T00:16:14;101283.88;;;0.57;100.00
32873;BME280;19224;52.462;16.898;2023-01-29T00:18:44;101273.66;;;0.51;100.00
32873;BME280;19224;52.462;16.898;2023-01-29T00:21:20;101269.59;;;0.43;100.00
32873;BME280;19224;52.462;16.898;2023-01-29T00:23:52;101268.16;;;0.34;100.00
32873;BME280;19224;52.462;16.898;2023-01-29T00:26:23;101268.53;;;0.28;100.00
32873;BME280;19224;52.462;16.898;2023-01-29T00:28:55;101263.63;;;0.23;100.00
32873;BME280;19224;52.462;16.898;2023-01-29T00:31:31;101265.31;;;0.18;100.00
32873;BME280;19224;52.462;16.898;2023-01-29T00:34:02;101261.73;;;0.13;100.00
32873;BME280;19224;52.462;16.898;2023-01-29T00:36:32;101246.64;;;0.06;100.00
32873;BME280;19224;52.462;16.898;2023-01-29T00:39:03;101247.93;;;0.03;100.00
32873;BME280;19224;52.462;16.898;2023-01-29T00:41:37;101252.27;;;-0.02;100.00
32873;BME280;19224;52.462;16.898;2023-01-29T00:44:26;101243.41;;;-0.04;100.00
32873;BME280;19224;52.462;16.898;2023-01-29T00:47:16;101244.26;;;-0.08;100.00
32873;BME280;19224;52.462;16.898;2023-01-29T00:50:06;101243.39;;;-0.07;100.00
32873;BME280;19224;52.462;16.898;2023-01-29T00:52:38;101242.84;;;-0.14;100.00
32873;BME280;19224;52.462;16.898;2023-01-29T00:55:12;101242.39;;;-0.16;100.00
32873;BME280;19224;52.462;16.898;2023-01-29T00:57:42;101248.11;;;-0.17;100.00
32873;BME280;19224;52.462;16.898;2023-01-29T01:00:16;101244.55;;;-0.19;100.00
32873;BME280;19224;52.462;16.898;2023-01-29T01:02:48;101252.91;;;-0.21;100.00
32873;BME280;19224;52.462;16.898;2023-01-29T01:05:38;101252.91;;;-0.21;100.00
32873;BME280;19224;52.462;16.898;2023-01-29T01:08:11;101257.30;;;-0.21;100.00
32873;BME280;19224;52.462;16.898;2023-01-29T01:11:03;101262.56;;;-0.23;100.00
32873;BME280;19224;52.462;16.898;2023-01-29T01:13:34;101254.59;;;-0.27;100.00
32873;BME280;19224;52.462;16.898;2023-01-29T01:16:14;101256.30;;;-0.29;100.00
32873;BME280;19224;52.462;16.898;2023-01-29T01:18:45;101249.62;;;-0.34;100.00
32873;BME280;19224;52.462;16.898;2023-01-29T01:21:15;101254.88;;;-0.37;100.00
32873;BME280;19224;52.462;16.898;2023-01-29T01:23:47;101242.97;;;-0.37;100.00
32873;BME280;19224;52.462;16.898;2023-01-29T01:26:19;101242.09;;;-0.36;100.00
32873;BME280;19224;52.462;16.898;2023-01-29T01:28:50;101237.23;;;-0.38;100.00
32873;BME280;19224;52.462;16.898;2023-01-29T01:31:21;101231.03;;;-0.40;100.00
32873;BME280;19224;52.462;16.898;2023-01-29T01:33:52;101232.32;;;-0.43;100.00
32873;BME280;19224;52.462;16.898;2023-01-29T01:36:24;101234.97;;;-0.43;100.00
32873;BME280;19224;52.462;16.898;2023-01-29T01:38:54;101237.55;;;-0.47;100.00
32873;BME280;19224;52.462;16.898;2023-01-29T01:41:25;101244.13;;;-0.49;100.00
32873;BME280;19224;52.462;16.898;2023-01-29T01:44:01;101243.70;;;-0.48;100.00
32873;BME280;19224;52.462;16.898;2023-01-29T01:46:37;101243.67;;;-0.50;100.00
32873;BME280;19224;52.462;16.898;2023-01-29T01:49:11;101239.70;;;-0.50;100.00
32873;BME280;19224;52.462;16.898;2023-01-29T01:51:47;101232.22;;;-0.49;100.00
32873;BME280;19224;52.462;16.898;2023-01-29T01:54:24;101240.98;;;-0.53;100.00
32873;BME280;19224;52.462;16.898;2023-01-29T01:57:05;101237.89;;;-0.54;100.00
32873;BME280;19224;52.462;16.898;2023-01-29T01:59:32;101238.31;;;-0.54;100.00
32873;BME280;19224;52.462;16.898;2023-01-29T02:02:04;101234.76;;;-0.56;100.00
32873;BME280;19224;52.462;16.898;2023-01-29T02:04:54;101233.85;;;-0.57;100.00
32873;BME280;19224;52.462;16.898;2023-01-29T02:07:45;101229.92;;;-0.55;100.00
32873;BME280;19224;52.462;16.898;2023-01-29T02:10:41;101238.23;;;-0.60;100.00
32873;BME280;19224;52.462;16.898;2023-01-29T02:13:13;101230.30;;;-0.59;100.00
32873;BME280;19224;52.462;16.898;2023-01-29T02:15:46;101225.12;;;-0.53;100.00
32873;BME280;19224;52.462;16.898;2023-01-29T02:18:20;101223.45;;;-0.46;100.00
32873;BME280;19224;52.462;16.898;2023-01-29T02:21:19;101229.26;;;-0.41;100.00
32873;BME280;19224;52.462;16.898;2023-01-29T02:24:17;101234.58;;;-0.38;100.00
32873;BME280;19224;52.462;16.898;2023-01-29T02:27:02;101228.45;;;-0.34;100.00
32873;BME280;19224;52.462;16.898;2023-01-29T02:30:02;101236.91;;;-0.28;100.00
32873;BME280;19224;52.462;16.898;2023-01-29T02:32:39;101236.55;;;-0.23;100.00
32873;BME280;19224;52.462;16.898;2023-01-29T02:35:16;101229.55;;;-0.20;100.00
32873;BME280;19224;52.462;16.898;2023-01-29T02:38:10;101219.41;;;-0.17;100.00
32873;BME280;19224;52.462;16.898;2023-01-29T02:43:50;101214.59;;;-0.15;100.00
32873;BME280;19224;52.462;16.898;2023-01-29T02:49:35;101210.63;;;-0.15;100.00
32873;BME280;19224;52.462;16.898;2023-01-29T02:55:20;101222.12;;;-0.14;100.00
32873;BME280;19224;52.462;16.898;2023-01-29T02:57:54;101232.31;;;-0.11;100.00
32873;BME280;19224;52.462;16.898;2023-01-29T03:00:29;101219.08;;;-0.09;100.00
32873;BME280;19224;52.462;16.898;2023-01-29T03:03:35;101212.55;;;-0.03;100.00
32873;BME280;19224;52.462;16.898;2023-01-29T03:05:59;101212.97;;;-0.04;100.00
32873;BME280;19224;52.462;16.898;2023-01-29T03:08:44;101213.88;;;-0.03;100.00
32873;BME280;19224;52.462;16.898;2023-01-29T03:11:16;101208.10;;;-0.06;100.00
32873;BME280;19224;52.462;16.898;2023-01-29T03:13:56;101210.78;;;-0.03;100.00
32873;BME280;19224;52.462;16.898;2023-01-29T03:19:30;101199.87;;;0.08;100.00
32873;BME280;19224;52.462;16.898;2023-01-29T03:21:58;101188.94;;;0.16;100.00
32873;BME280;19224;52.462;16.898;2023-01-29T03:24:44;101184.86;;;0.07;100.00
32873;BME280;19224;52.462;16.898;2023-01-29T03:27:47;101180.87;;;0.04;100.00
32873;BME280;19224;52.462;16.898;2023-01-29T03:30:43;101176.44;;;0.04;100.00
32873;BME280;19224;52.462;16.898;2023-01-29T03:33:31;101171.20;;;0.09;100.00
32873;BME280;19224;52.462;16.898;2023-01-29T03:36:09;101168.50;;;0.04;100.00
32873;BME280;19224;52.462;16.898;2023-01-29T03:38:41;101164.16;;;0.11;100.00
32873;BME280;19224;52.462;16.898;2023-01-29T03:41:31;101152.61;;;0.04;100.00
32873;BME280;19224;52.462;16.898;2023-01-29T03:44:18;101152.63;;;0.03;100.00
32873;BME280;19224;52.462;16.898;2023-01-29T03:46:55;101149.20;;;0.13;100.00
32873;BME280;19224;52.462;16.898;2023-01-29T03:50:02;101148.34;;;0.17;100.00
32873;BME280;19224;52.462;16.898;2023-01-29T03:52:50;101146.59;;;0.19;100.00
32873;BME280;19224;52.462;16.898;2023-01-29T03:55:38;101143.43;;;0.10;100.00
32873;BME280;19224;52.462;16.898;2023-01-29T03:58:24;101137.66;;;0.08;100.00
32873;BME280;19224;52.462;16.898;2023-01-29T04:01:05;101141.60;;;0.05;100.00
32873;BME280;19224;52.462;16.898;2023-01-29T04:03:49;101150.91;;;0.11;100.00
32873;BME280;19224;52.462;16.898;2023-01-29T04:06:28;101139.88;;;0.10;100.00
32873;BME280;19224;52.462;16.898;2023-01-29T04:12:02;101123.27;;;0.23;100.00
32873;BME280;19224;52.462;16.898;2023-01-29T04:14:35;101133.31;;;0.13;100.00
32873;BME280;19224;52.462;16.898;2023-01-29T04:17:22;101136.35;;;0.11;100.00
32873;BME280;19224;52.462;16.898;2023-01-29T04:19:48;101115.59;;;0.09;100.00
32873;BME280;19224;52.462;16.898;2023-01-29T04:22:34;101108.55;;;0.11;100.00
32873;BME280;19224;52.462;16.898;2023-01-29T04:25:16;101108.10;;;0.10;100.00
32873;BME280;19224;52.462;16.898;2023-01-29T04:28:06;101101.91;;;0.08;100.00
32873;BME280;19224;52.462;16.898;2023-01-29T04:30:57;101096.62;;;0.08;100.00
32873;BME280;19224;52.462;16.898;2023-01-29T04:33:54;101102.84;;;0.11;100.00
32873;BME280;19224;52.462;16.898;2023-01-29T04:36:58;101106.40;;;0.16;100.00
32873;BME280;19224;52.462;16.898;2023-01-29T04:39:58;101098.02;;;0.14;100.00
32873;BME280;19224;52.462;16.898;2023-01-29T04:45:45;101093.63;;;0.19;100.00
32873;BME280;19224;52.462;16.898;2023-01-29T04:48:27;101086.12;;;0.17;100.00
32873;BME280;19224;52.462;16.898;2023-01-29T04:57:01;101064.47;;;0.13;100.00
32873;BME280;19224;52.462;16.898;2023-01-29T04:59:34;101070.66;;;0.15;100.00
32873;BME280;19224;52.462;16.898;2023-01-29T05:02:04;101072.41;;;0.13;100.00
32873;BME280;19224;52.462;16.898;2023-01-29T05:04:40;101079.92;;;0.15;100.00
32873;BME280;19224;52.462;16.898;2023-01-29T05:07:13;101071.55;;;0.17;100.00
32873;BME280;19224;52.462;16.898;2023-01-29T05:09:46;101074.18;;;0.14;100.00
32873;BME280;19224;52.462;16.898;2023-01-29T05:12:18;101071.53;;;0.14;100.00
32873;BME280;19224;52.462;16.898;2023-01-29T05:14:50;101064.02;;;0.12;100.00
32873;BME280;19224;52.462;16.898;2023-01-29T05:17:22;101058.27;;;0.12;100.00
32873;BME280;19224;52.462;16.898;2023-01-29T05:19:55;101057.42;;;0.15;100.00
32873;BME280;19224;52.462;16.898;2023-01-29T05:22:27;101050.39;;;0.20;100.00
32873;BME280;19224;52.462;16.898;2023-01-29T05:24:59;101049.05;;;0.17;100.00
32873;BME280;19224;52.462;16.898;2023-01-29T05:27:33;101060.06;;;0.16;100.00
32873;BME280;19224;52.462;16.898;2023-01-29T05:30:21;101065.38;;;0.18;100.00
32873;BME280;19224;52.462;16.898;2023-01-29T05:32:54;101059.56;;;0.11;100.00
32873;BME280;19224;52.462;16.898;2023-01-29T05:35:24;101060.54;;;0.17;100.00
32873;BME280;19224;52.462;16.898;2023-01-29T05:37:56;101058.77;;;0.18;100.00
32873;BME280;19224;52.462;16.898;2023-01-29T05:40:27;101053.08;;;0.24;100.00
32873;BME280;19224;52.462;16.898;2023-01-29T05:42:58;101046.03;;;0.25;100.00
32873;BME280;19224;52.462;16.898;2023-01-29T05:45:28;101053.09;;;0.27;100.00
32873;BME280;19224;52.462;16.898;2023-01-29T05:48:00;101062.81;;;0.27;100.00
32873;BME280;19224;52.462;16.898;2023-01-29T05:50:31;101072.09;;;0.27;100.00
32873;BME280;19224;52.462;16.898;2023-01-29T05:53:02;101072.98;;;0.29;100.00
32873;BME280;19224;52.462;16.898;2023-01-29T05:55:33;101065.48;;;0.30;100.00
32873;BME280;19224;52.462;16.898;2023-01-29T05:58:04;101070.36;;;0.30;100.00
32873;BME280;19224;52.462;16.898;2023-01-29T06:00:34;101070.29;;;0.24;100.00
32873;BME280;19224;52.462;16.898;2023-01-29T06:03:05;101061.90;;;0.23;100.00
32873;BME280;19224;52.462;16.898;2023-01-29T06:05:39;101066.75;;;0.22;100.00
32873;BME280;19224;52.462;16.898;2023-01-29T06:08:10;101078.69;;;0.25;100.00
32873;BME280;19224;52.462;16.898;2023-01-29T06:10:41;101087.48;;;0.21;100.00
32873;BME280;19224;52.462;16.898;2023-01-29T06:13:12;101086.53;;;0.16;100.00
32873;BME280;19224;52.462;16.898;2023-01-29T06:15:42;101087.87;;;0.15;100.00
32873;BME280;19224;52.462;16.898;2023-01-29T06:18:13;101090.87;;;0.07;100.00
32873;BME280;19224;52.462;16.898;2023-01-29T06:20:43;101085.98;;;0.03;100.00
32873;BME280;19224;52.462;16.898;2023-01-29T06:23:14;101070.90;;;-0.05;100.00
32873;BME280;19224;52.462;16.898;2023-01-29T06:25:44;101075.77;;;-0.03;100.00
32873;BME280;19224;52.462;16.898;2023-01-29T06:28:15;101084.20;;;0.02;100.00
32873;BME280;19224;52.462;16.898;2023-01-29T06:30:45;101080.69;;;0.02;100.00
32873;BME280;19224;52.462;16.898;2023-01-29T06:33:16;101102.34;;;0.06;100.00
32873;BME280;19224;52.462;16.898;2023-01-29T06:35:46;101108.48;;;0.02;100.00
32873;BME280;19224;52.462;16.898;2023-01-29T06:38:17;101112.43;;;0.00;100.00
32873;BME280;19224;52.462;16.898;2023-01-29T06:40:47;101105.88;;;0.08;100.00
32873;BME280;19224;52.462;16.898;2023-01-29T06:43:18;101109.48;;;0.14;100.00
32873;BME280;19224;52.462;16.898;2023-01-29T06:45:58;101114.50;;;0.33;100.00
32873;BME280;19224;52.462;16.898;2023-01-29T06:48:24;101111.92;;;0.39;100.00
32873;BME280;19224;52.462;16.898;2023-01-29T06:50:55;101112.76;;;0.33;100.00
32873;BME280;19224;52.462;16.898;2023-01-29T06:53:25;101103.45;;;0.32;100.00
32873;BME280;19224;52.462;16.898;2023-01-29T06:55:56;101101.23;;;0.30;100.00
32873;BME280;19224;52.462;16.898;2023-01-29T06:58:27;101103.89;;;0.30;100.00
32873;BME280;19224;52.462;16.898;2023-01-29T07:01:06;101089.36;;;0.34;100.00
32873;BME280;19224;52.462;16.898;2023-01-29T07:03:37;101087.58;;;0.30;100.00
32873;BME280;19224;52.462;16.898;2023-01-29T07:06:09;101087.17;;;0.34;100.00
32873;BME280;19224;52.462;16.898;2023-01-29T07:08:40;101073.45;;;0.31;100.00
32873;BME280;19224;52.462;16.898;2023-01-29T07:11:11;101073.52;;;0.39;100.00
32873;BME280;19224;52.462;16.898;2023-01-29T07:13:42;101062.93;;;0.42;100.00
32873;BME280;19224;52.462;16.898;2023-01-29T07:16:12;101065.17;;;0.45;100.00
32873;BME280;19224;52.462;16.898;2023-01-29T07:18:43;101061.22;;;0.47;100.00
32873;BME280;19224;52.462;16.898;2023-01-29T07:21:13;101071.84;;;0.50;100.00
32873;BME280;19224;52.462;16.898;2023-01-29T07:23:44;101068.77;;;0.50;100.00
32873;BME280;19224;52.462;16.898;2023-01-29T07:26:15;101059.92;;;0.53;100.00
32873;BME280;19224;52.462;16.898;2023-01-29T07:28:46;101059.50;;;0.53;100.00
32873;BME280;19224;52.462;16.898;2023-01-29T07:31:16;101052.84;;;0.49;100.00
32873;BME280;19224;52.462;16.898;2023-01-29T07:33:47;101049.77;;;0.51;100.00
32873;BME280;19224;52.462;16.898;2023-01-29T07:36:18;101052.02;;;0.56;100.00
32873;BME280;19224;52.462;16.898;2023-01-29T07:38:51;101061.30;;;0.56;100.00
32873;BME280;19224;52.462;16.898;2023-01-29T07:41:22;101062.12;;;0.52;100.00
32873;BME280;19224;52.462;16.898;2023-01-29T07:43:53;101061.31;;;0.59;100.00
32873;BME280;19224;52.462;16.898;2023-01-29T07:46:23;101061.28;;;0.54;100.00
32873;BME280;19224;52.462;16.898;2023-01-29T07:48:54;101050.27;;;0.58;100.00
32873;BME280;19224;52.462;16.898;2023-01-29T07:51:25;101048.95;;;0.61;100.00
32873;BME280;19224;52.462;16.898;2023-01-29T07:53:55;101057.41;;;0.68;100.00
32873;BME280;19224;52.462;16.898;2023-01-29T07:56:26;101051.67;;;0.70;100.00
32873;BME280;19224;52.462;16.898;2023-01-29T07:58:56;101061.41;;;0.74;100.00
32873;BME280;19224;52.462;16.898;2023-01-29T08:01:27;101069.77;;;0.70;100.00
32873;BME280;19224;52.462;16.898;2023-01-29T08:03:57;101076.86;;;0.73;100.00
32873;BME280;19224;52.462;16.898;2023-01-29T08:06:28;101079.52;;;0.73;100.00
32873;BME280;19224;52.462;16.898;2023-01-29T08:08:58;101079.06;;;0.72;100.00
32873;BME280;19224;52.462;16.898;2023-01-29T08:11:29;101083.05;;;0.72;100.00
32873;BME280;19224;52.462;16.898;2023-01-29T08:14:00;101083.45;;;0.68;100.00
32873;BME280;19224;52.462;16.898;2023-01-29T08:16:30;101083.05;;;0.72;100.00
32873;BME280;19224;52.462;16.898;2023-01-29T08:19:22;101081.28;;;0.74;100.00
32873;BME280;19224;52.462;16.898;2023-01-29T08:21:52;101085.34;;;0.86;100.00
32873;BME280;19224;52.462;16.898;2023-01-29T08:24:23;101083.10;;;0.78;100.00
32873;BME280;19224;52.462;16.898;2023-01-29T08:26:53;101069.44;;;0.86;100.00
32873;BME280;19224;52.462;16.898;2023-01-29T08:29:24;101062.86;;;0.92;100.00
32873;BME280;19224;52.462;16.898;2023-01-29T08:31:55;101066.85;;;0.98;100.00
32873;BME280;19224;52.462;16.898;2023-01-29T08:34:26;101054.94;;;0.96;100.00
32873;BME280;19224;52.462;16.898;2023-01-29T08:36:56;101051.89;;;1.09;100.00
32873;BME280;19224;52.462;16.898;2023-01-29T08:39:27;101032.91;;;1.12;100.00
32873;BME280;19224;52.462;16.898;2023-01-29T08:41:57;101030.72;;;1.21;100.00
32873;BME280;19224;52.462;16.898;2023-01-29T08:44:28;101014.78;;;1.16;100.00
32873;BME280;19224;52.462;16.898;2023-01-29T08:46:58;101013.48;;;1.15;100.00
32873;BME280;19224;52.462;16.898;2023-01-29T08:49:29;101013.47;;;1.12;100.00
32873;BME280;19224;52.462;16.898;2023-01-29T08:52:00;101002.42;;;1.17;100.00
32873;BME280;19224;52.462;16.898;2023-01-29T08:54:30;101016.13;;;1.18;100.00
32873;BME280;19224;52.462;16.898;2023-01-29T08:57:01;101018.75;;;1.07;100.00
32873;BME280;19224;52.462;16.898;2023-01-29T08:59:31;101023.16;;;1.07;100.00
32873;BME280;19224;52.462;16.898;2023-01-29T09:02:02;101013.89;;;1.08;100.00
32873;BME280;19224;52.462;16.898;2023-01-29T09:04:33;101012.12;;;1.10;100.00
32873;BME280;19224;52.462;16.898;2023-01-29T09:07:03;101008.64;;;1.20;100.00
32873;BME280;19224;52.462;16.898;2023-01-29T09:09:34;101009.50;;;1.18;100.00
32873;BME280;19224;52.462;16.898;2023-01-29T09:12:06;101007.69;;;1.11;100.00
32873;BME280;19224;52.462;16.898;2023-01-29T09:14:36;101014.83;;;1.19;100.00
32873;BME280;19224;52.462;16.898;2023-01-29T09:17:07;101012.17;;;1.25;100.00
32873;BME280;19224;52.462;16.898;2023-01-29T09:19:37;101020.17;;;1.34;100.00
32873;BME280;19224;52.462;16.898;2023-01-29T09:22:08;101016.64;;;1.32;100.00
32873;BME280;19224;52.462;16.898;2023-01-29T09:24:39;101017.08;;;1.33;100.00
32873;BME280;19224;52.462;16.898;2023-01-29T09:27:09;101014.41;;;1.32;100.00
32873;BME280;19224;52.462;16.898;2023-01-29T09:29:40;101012.20;;;1.33;100.00
32873;BME280;19224;52.462;16.898;2023-01-29T09:32:10;101013.98;;;1.32;100.00
32873;BME280;19224;52.462;16.898;2023-01-29T09:34:41;101023.69;;;1.23;100.00
32873;BME280;19224;52.462;16.898;2023-01-29T09:37:12;101021.50;;;1.28;100.00
32873;BME280;19224;52.462;16.898;2023-01-29T09:39:43;101017.06;;;1.32;100.00
32873;BME280;19224;52.462;16.898;2023-01-29T09:42:28;101021.02;;;1.24;100.00
32873;BME280;19224;52.462;16.898;2023-01-29T09:45:15;101019.64;;;1.12;100.00
32873;BME280;19224;52.462;16.898;2023-01-29T09:47:47;101008.68;;;1.32;100.00
32873;BME280;19224;52.462;16.898;2023-01-29T09:53:11;101021.02;;;1.24;100.00
32873;BME280;19224;52.462;16.898;2023-01-29T09:55:45;101018.81;;;1.25;100.00
32873;BME280;19224;52.462;16.898;2023-01-29T10:04:12;101024.58;;;1.25;100.00
32873;BME280;19224;52.462;16.898;2023-01-29T10:07:06;101008.25;;;1.36;100.00
32873;BME280;19224;52.462;16.898;2023-01-29T10:10:02;101004.30;;;1.40;100.00
32873;BME280;19224;52.462;16.898;2023-01-29T10:13:17;101002.09;;;1.46;100.00
32873;BME280;19224;52.462;16.898;2023-01-29T10:16:11;100986.13;;;1.38;100.00
32873;BME280;19224;52.462;16.898;2023-01-29T10:19:12;100987.91;;;1.44;100.00
32873;BME280;19224;52.462;16.898;2023-01-29T10:24:57;100981.28;;;1.41;100.00
32873;BME280;19224;52.462;16.898;2023-01-29T10:27:33;100986.14;;;1.43;100.00
32873;BME280;19224;52.462;16.898;2023-01-29T10:33:02;100972.87;;;1.40;100.00
32873;BME280;19224;52.462;16.898;2023-01-29T10:35:40;100954.33;;;1.41;100.00
32873;BME280;19224;52.462;16.898;2023-01-29T10:41:28;100967.12;;;1.42;100.00
32873;BME280;19224;52.462;16.898;2023-01-29T10:44:27;100958.73;;;1.35;100.00
32873;BME280;19224;52.462;16.898;2023-01-29T10:56:15;100932.66;;;1.45;100.00
32873;BME280;19224;52.462;16.898;2023-01-29T11:01:50;100926.02;;;1.43;100.00
32873;BME280;19224;52.462;16.898;2023-01-29T11:04:20;100921.14;;;1.43;100.00
32873;BME280;19224;52.462;16.898;2023-01-29T11:06:51;100925.14;;;1.52;100.00
32873;BME280;19224;52.462;16.898;2023-01-29T11:09:35;100932.66;;;1.48;100.00
32873;BME280;19224;52.462;16.898;2023-01-29T11:12:17;100924.69;;;1.54;100.00
32873;BME280;19224;52.462;16.898;2023-01-29T11:15:06;100929.11;;;1.55;100.00
32873;BME280;19224;52.462;16.898;2023-01-29T11:17:36;100932.23;;;1.56;100.00
32873;BME280;19224;52.462;16.898;2023-01-29T11:20:24;100932.66;;;1.51;100.00
32873;BME280;19224;52.462;16.898;2023-01-29T11:22:52;100922.94;;;1.51;100.00
32873;BME280;19224;52.462;16.898;2023-01-29T11:25:19;100910.98;;;1.47;100.00
32873;BME280;19224;52.462;16.898;2023-01-29T11:27:56;100902.15;;;1.45;100.00
32873;BME280;19224;52.462;16.898;2023-01-29T11:30:32;100920.25;;;1.44;100.00
32873;BME280;19224;52.462;16.898;2023-01-29T11:35:44;100907.03;;;1.56;100.00
32873;BME280;19224;52.462;16.898;2023-01-29T11:38:27;100904.35;;;1.65;100.00
32873;BME280;19224;52.462;16.898;2023-01-29T11:41:13;100893.31;;;1.58;100.00
32873;BME280;19224;52.462;16.898;2023-01-29T11:43:41;100886.68;;;1.62;100.00
32873;BME280;19224;52.462;16.898;2023-01-29T11:46:14;100885.35;;;1.62;100.00
32873;BME280;19224;52.462;16.898;2023-01-29T11:48:51;100863.67;;;1.69;100.00
32873;BME280;19224;52.462;16.898;2023-01-29T11:51:26;100853.05;;;1.60;100.00
32873;BME280;19224;52.462;16.898;2023-01-29T11:54:03;100864.55;;;1.71;100.00
32873;BME280;19224;52.462;16.898;2023-01-29T11:56:40;100853.92;;;1.60;100.00
32873;BME280;19224;52.462;16.898;2023-01-29T11:59:42;100857.46;;;1.59;100.00
32873;BME280;19224;52.462;16.898;2023-01-29T12:02:37;100844.20;;;1.70;100.00
32873;BME280;19224;52.462;16.898;2023-01-29T12:05:21;100838.02;;;1.68;100.00
32873;BME280;19224;52.462;16.898;2023-01-29T12:07:56;100836.23;;;1.74;100.00
32873;BME280;19224;52.462;16.898;2023-01-29T12:10:39;100848.59;;;1.77;100.00
32873;BME280;19224;52.462;16.898;2023-01-29T12:15:48;100840.21;;;1.73;100.00
32873;BME280;19224;52.462;16.898;2023-01-29T12:18:35;100839.76;;;1.66;100.00
32873;BME280;19224;52.462;16.898;2023-01-29T12:27:19;100816.32;;;1.55;100.00
32873;BME280;19224;52.462;16.898;2023-01-29T12:29:59;100819.88;;;1.48;100.00
32873;BME280;19224;52.462;16.898;2023-01-29T12:32:51;100831.80;;;1.49;100.00
32873;BME280;19224;52.462;16.898;2023-01-29T12:35:25;100828.73;;;1.47;100.00
32873;BME280;19224;52.462;16.898;2023-01-29T12:38:08;100813.23;;;1.51;100.00
32873;BME280;19224;52.462;16.898;2023-01-29T12:40:59;100808.37;;;1.52;100.00
32873;BME280;19224;52.462;16.898;2023-01-29T12:43:52;100816.77;;;1.57;100.00
32873;BME280;19224;52.462;16.898;2023-01-29T12:46:29;100818.55;;;1.57;100.00
32873;BME280;19224;52.462;16.898;2023-01-29T12:49:03;100818.98;;;1.64;100.00
32873;BME280;19224;52.462;16.898;2023-01-29T12:51:53;100811.47;;;1.63;100.00
32873;BME280;19224;52.462;16.898;2023-01-29T12:54:23;100806.15;;;1.71;100.00
32873;BME280;19224;52.462;16.898;2023-01-29T12:56:57;100803.95;;;1.69;100.00
32873;BME280;19224;52.462;16.898;2023-01-29T12:59:44;100807.91;;;1.75;100.00
32873;BME280;19224;52.462;16.898;2023-01-29T13:02:38;100807.03;;;1.74;100.00
32873;BME280;19224;52.462;16.898;2023-01-29T13:05:59;100797.72;;;1.76;100.00
32873;BME280;19224;52.462;16.898;2023-01-29T13:10:50;100792.00;;;1.73;100.00
32873;BME280;19224;52.462;16.898;2023-01-29T13:16:32;100769.87;;;1.74;100.00
32873;BME280;19224;52.462;16.898;2023-01-29T13:19:19;100772.50;;;1.76;100.00
32873;BME280;19224;52.462;16.898;2023-01-29T13:21:42;100758.36;;;1.80;100.00
32873;BME280;19224;52.462;16.898;2023-01-29T13:24:20;100751.27;;;1.76;100.00
32873;BME280;19224;52.462;16.898;2023-01-29T13:26:51;100764.53;;;1.82;100.00
32873;BME280;19224;52.462;16.898;2023-01-29T13:29:30;100758.33;;;1.81;100.00
32873;BME280;19224;52.462;16.898;2023-01-29T13:32:03;100765.42;;;1.81;100.00
32873;BME280;19224;52.462;16.898;2023-01-29T13:34:45;100758.77;;;1.78;100.00
32873;BME280;19224;52.462;16.898;2023-01-29T13:39:59;100768.06;;;1.84;100.00
32873;BME280;19224;52.462;16.898;2023-01-29T13:42:45;100767.65;;;1.80;100.00
32873;BME280;19224;52.462;16.898;2023-01-29T13:45:40;100764.08;;;1.84;100.00
32873;BME280;19224;52.462;16.898;2023-01-29T13:48:26;100769.39;;;1.90;100.00
32873;BME280;19224;52.462;16.898;2023-01-29T13:51:02;100766.70;;;1.94;100.00
32873;BME280;19224;52.462;16.898;2023-01-29T13:53:37;100761.44;;;1.85;100.00
32873;BME280;19224;52.462;16.898;2023-01-29T13:59:07;100764.52;;;1.91;100.00
32873;BME280;19224;52.462;16.898;2023-01-29T14:04:27;100761.88;;;1.86;100.00
32873;BME280;19224;52.462;16.898;2023-01-29T14:07:00;100749.01;;;1.89;100.00
32873;BME280;19224;52.462;16.898;2023-01-29T14:12:34;100745.97;;;1.79;100.00
32873;BME280;19224;52.462;16.898;2023-01-29T14:15:17;100746.81;;;1.87;100.00
32873;BME280;19224;52.462;16.898;2023-01-29T14:18:03;100744.19;;;1.81;100.00
32873;BME280;19224;52.462;16.898;2023-01-29T14:20:51;100750.35;;;1.86;100.00
32873;BME280;19224;52.462;16.898;2023-01-29T14:26:40;100743.28;;;1.85;100.00
32873;BME280;19224;52.462;16.898;2023-01-29T14:29:17;100731.37;;;1.79;100.00
32873;BME280;19224;52.462;16.898;2023-01-29T14:31:56;100732.25;;;1.76;100.00
32873;BME280;19224;52.462;16.898;2023-01-29T14:34:29;100728.27;;;1.76;100.00
32873;BME280;19224;52.462;16.898;2023-01-29T14:39:53;100740.62;;;1.85;100.00
32873;BME280;19224;52.462;16.898;2023-01-29T14:42:54;100738.87;;;1.81;100.00
32873;BME280;19224;52.462;16.898;2023-01-29T14:45:32;100731.79;;;1.83;100.00
32873;BME280;19224;52.462;16.898;2023-01-29T14:50:47;100730.02;;;1.76;100.00
32873;BME280;19224;52.462;16.898;2023-01-29T14:53:44;100720.75;;;1.79;100.00
32873;BME280;19224;52.462;16.898;2023-01-29T14:56:23;100720.27;;;1.84;100.00
32873;BME280;19224;52.462;16.898;2023-01-29T15:01:59;100721.63;;;1.75;100.00